Time;durP1;ratioP1;P1;durP2;ratioP2;P2;SDS_P1;SDS_P2;PMS_P1;PMS_P2;Temp;Humidity;BMP_temperature;BMP_pressure;BME280_temperature;BME280_humidity;BME280_pressure;Samples;Min_cycle;Max_cycle;Signal;HPM_P1;HPM_P2
2021/04/17 00:01:47;;;;;;;;;;;;;;;4.48;81.13;101317.88;1753011;80;20820;-71
2021/04/17 00:04:13;;;;;;;;;;;;;;;4.46;81.14;101310.99;1748255;81;20227;-71
2021/04/17 00:06:39;;;;;;;;;;;;;;;4.47;81.25;101311.44;1748669;80;20264;-71
2021/04/17 00:09:09;;;;;;;;;;;;;;;4.47;81.27;101307.19;1754580;80;20565;-71
2021/04/17 00:11:35;;;;;;;;;;;;;;;4.50;81.26;101305.09;1752417;80;20178;-71
2021/04/17 00:14:02;;;;;;;;;;;;;;;4.49;81.25;101305.52;1753436;81;20252;-71
2021/04/17 00:16:28;;;;;;;;;;;;;;;4.51;81.28;101305.13;1746024;80;20300;-71
2021/04/17 00:18:54;;;;;;;;;;;;;;;4.52;81.24;101303.44;1753159;81;20332;-71
2021/04/17 00:21:19;;;;;;;;;;;;;;;4.51;81.26;101307.69;1753102;81;20287;-71
2021/04/17 00:23:45;;;;;;;;;;;;;;;4.53;81.31;101302.59;1732845;81;20289;-71
2021/04/17 00:26:11;;;;;;;;;;;;;;;4.55;81.34;101302.21;1744516;81;20318;-71
2021/04/17 00:28:37;;;;;;;;;;;;;;;4.56;81.31;101297.53;1746403;81;20189;-71
2021/04/17 00:31:05;;;;;;;;;;;;;;;4.55;81.28;101297.95;1741692;80;20340;-71
2021/04/17 00:33:31;;;;;;;;;;;;;;;4.57;81.31;101300.12;1749687;80;20599;-71
2021/04/17 00:35:57;;;;;;;;;;;;;;;4.57;81.26;101296.70;1753170;81;20284;-71
2021/04/17 00:38:29;;;;;;;;;;;;;;;4.56;81.28;101297.13;1739492;80;20286;-71
2021/04/17 00:40:56;;;;;;;;;;;;;;;4.55;81.29;101292.83;1750674;80;20374;-71
2021/04/17 00:43:22;;;;;;;;;;;;;;;4.54;81.22;101292.38;1743927;80;20329;-71
2021/04/17 00:45:48;;;;;;;;;;;;;;;4.53;81.24;101298.34;1713726;82;20326;-71
2021/04/17 00:48:14;;;;;;;;;;;;;;;4.53;81.29;101296.20;1714849;82;20274;-71
2021/04/17 00:50:41;;;;;;;;;;;;;;;4.50;81.29;101293.16;1700849;83;20280;-71
2021/04/17 00:53:08;;;;;;;;;;;;;;;4.50;81.30;101289.31;1741682;81;20252;-71
2021/04/17 00:55:34;;;;;;;;;;;;;;;4.49;81.33;101286.31;1746181;80;20261;-71
2021/04/17 00:58:05;;;;;;;;;;;;;;;4.48;81.29;101288.42;1740356;81;20260;-71
2021/04/17 01:00:34;;;;;;;;;;;;;;;4.48;81.32;101288.42;1751058;81;20276;-71
2021/04/17 01:03:19;;;;;;;;;;;;;;;4.49;81.36;101290.56;1736061;81;20260;-71
2021/04/17 01:05:47;;;;;;;;;;;;;;;4.49;81.36;101305.52;1737465;81;20155;-71
2021/04/17 01:08:23;;;;;;;;;;;;;;;4.49;81.36;101293.99;1735781;80;20193;-71
2021/04/17 01:10:55;;;;;;;;;;;;;;;4.48;81.37;101293.55;1746800;81;20248;-71
2021/04/17 01:13:21;;;;;;;;;;;;;;;4.50;81.38;101288.45;1746950;81;20288;-71
2021/04/17 01:15:48;;;;;;;;;;;;;;;4.49;81.42;101288.88;1752179;81;20161;-71
2021/04/17 01:18:14;;;;;;;;;;;;;;;4.47;81.30;101287.11;1752619;80;20248;-71
2021/04/17 01:20:49;;;;;;;;;;;;;;;4.46;81.40;101286.25;1711718;81;20461;-71
2021/04/17 01:23:40;;;;;;;;;;;;;;;4.48;81.43;101293.55;1749570;80;20264;-71
2021/04/17 01:26:11;;;;;;;;;;;;;;;4.48;81.39;101295.24;1742276;81;20248;-71
2021/04/17 01:28:46;;;;;;;;;;;;;;;4.45;81.34;101290.06;1745425;80;20266;-71
2021/04/17 01:31:14;;;;;;;;;;;;;;;4.44;81.48;101294.32;1738526;80;20189;-71
2021/04/17 01:33:42;;;;;;;;;;;;;;;4.47;81.52;101287.98;1752753;81;20290;-71
2021/04/17 01:36:09;;;;;;;;;;;;;;;4.48;81.48;101282.02;1752668;81;20626;-71
2021/04/17 01:38:42;;;;;;;;;;;;;;;4.50;81.50;101276.93;1747394;81;20292;-71
2021/04/17 01:41:14;;;;;;;;;;;;;;;4.51;81.50;101276.95;1740498;81;20272;-71
2021/04/17 01:43:41;;;;;;;;;;;;;;;4.52;81.46;101273.56;1745504;80;20251;-71
2021/04/17 01:46:10;;;;;;;;;;;;;;;4.52;81.50;101276.12;1748359;81;20256;-71
2021/04/17 01:48:37;;;;;;;;;;;;;;;4.55;81.49;101274.04;1731875;81;20274;-71
2021/04/17 01:51:03;;;;;;;;;;;;;;;4.55;81.47;101276.19;1741923;81;20284;-71
2021/04/17 01:53:31;;;;;;;;;;;;;;;4.56;81.49;101270.23;1737496;80;20297;-71
2021/04/17 01:55:58;;;;;;;;;;;;;;;4.58;81.52;101266.00;1741021;81;20159;-71
2021/04/17 01:58:27;;;;;;;;;;;;;;;4.58;81.51;101268.56;1742294;81;20284;-71
2021/04/17 02:00:54;;;;;;;;;;;;;;;4.58;81.50;101263.44;1741655;81;20253;-71
2021/04/17 02:03:21;;;;;;;;;;;;;;;4.59;81.53;101270.70;1751282;81;20448;-71
2021/04/17 02:05:51;;;;;;;;;;;;;;;4.60;81.59;101266.89;1746682;81;20284;-71
2021/04/17 02:08:17;;;;;;;;;;;;;;;4.63;81.56;101267.37;1742631;82;20161;-71
2021/04/17 02:10:45;;;;;;;;;;;;;;;4.64;81.56;101269.09;1750604;81;20326;-71
2021/04/17 02:13:12;;;;;;;;;;;;;;;4.64;81.55;101276.36;1741561;81;20267;-71
2021/04/17 02:15:39;;;;;;;;;;;;;;;4.65;81.54;101275.94;1752362;81;20264;-71
2021/04/17 02:18:21;;;;;;;;;;;;;;;4.68;81.59;101273.86;1752855;81;20304;-71
2021/04/17 02:21:00;;;;;;;;;;;;;;;4.69;81.55;101271.29;1751527;81;20288;-71
2021/04/17 02:23:28;;;;;;;;;;;;;;;4.70;81.58;101258.06;1742220;80;20304;-71
2021/04/17 02:25:57;;;;;;;;;;;;;;;4.71;81.61;101259.38;1753708;80;20539;-71
2021/04/17 02:28:25;;;;;;;;;;;;;;;4.73;81.62;101256.42;1746785;80;20292;-71
2021/04/17 02:30:55;;;;;;;;;;;;;;;4.74;81.59;101259.43;1753895;80;20303;-71
2021/04/17 02:33:22;;;;;;;;;;;;;;;4.73;81.54;101262.83;1730371;81;20313;-71
2021/04/17 02:35:48;;;;;;;;;;;;;;;4.70;81.49;101271.73;1752305;80;20177;-71
2021/04/17 02:38:17;;;;;;;;;;;;;;;4.69;81.50;101279.39;1748790;80;20284;-71
2021/04/17 02:40:43;;;;;;;;;;;;;;;4.69;81.57;101280.67;1744327;80;20212;-71
2021/04/17 02:43:09;;;;;;;;;;;;;;;4.69;81.56;101284.52;1750918;80;20693;-71
2021/04/17 02:45:35;;;;;;;;;;;;;;;4.69;81.59;101278.11;1749861;80;20260;-71
2021/04/17 02:48:02;;;;;;;;;;;;;;;4.70;81.61;101279.84;1755498;80;20165;-71
2021/04/17 02:50:28;;;;;;;;;;;;;;;4.70;81.57;101284.96;1755411;80;20249;-71
2021/04/17 02:52:54;;;;;;;;;;;;;;;4.68;81.58;101275.97;1755983;80;20261;-71
2021/04/17 02:55:21;;;;;;;;;;;;;;;4.68;81.67;101279.81;1754963;80;20267;-71
2021/04/17 02:57:48;;;;;;;;;;;;;;;4.69;81.64;101272.57;1741302;81;20254;-70
2021/04/17 03:00:18;;;;;;;;;;;;;;;4.69;81.59;101261.05;1739415;80;20296;-70
2021/04/17 03:02:44;;;;;;;;;;;;;;;4.63;81.54;101255.42;1751312;80;20272;-70
2021/04/17 03:05:17;;;;;;;;;;;;;;;4.62;81.60;101247.30;1747627;81;20268;-70
2021/04/17 03:07:43;;;;;;;;;;;;;;;4.60;81.59;101236.16;1755294;80;20247;-70
2021/04/17 03:10:10;;;;;;;;;;;;;;;4.57;81.44;101239.08;1755341;80;20252;-70
2021/04/17 03:12:36;;;;;;;;;;;;;;;4.50;81.44;101241.08;1747606;81;20271;-70
2021/04/17 03:15:04;;;;;;;;;;;;;;;4.44;81.42;101235.42;1742199;81;20294;-70
2021/04/17 03:17:39;;;;;;;;;;;;;;;4.38;81.46;101227.63;1742126;81;20267;-70
2021/04/17 03:20:08;;;;;;;;;;;;;;;4.32;81.47;101227.09;1755436;80;20177;-70
2021/04/17 03:22:34;;;;;;;;;;;;;;;4.27;81.46;101238.08;1740437;81;20180;-70
2021/04/17 03:25:01;;;;;;;;;;;;;;;4.21;81.42;101254.59;1744224;81;20260;-70
2021/04/17 03:27:27;;;;;;;;;;;;;;;4.12;81.40;101265.53;1755428;81;20611;-70
2021/04/17 03:29:53;;;;;;;;;;;;;;;4.05;81.44;101277.75;1743574;81;20226;-70
2021/04/17 03:32:19;;;;;;;;;;;;;;;3.98;81.42;101284.44;1751405;81;20216;-70
2021/04/17 03:34:45;;;;;;;;;;;;;;;3.92;81.49;101283.44;1754964;80;20800;-71
2021/04/17 03:37:13;;;;;;;;;;;;;;;3.87;81.56;101288.87;1737861;80;20292;-71
2021/04/17 03:39:39;;;;;;;;;;;;;;;3.85;81.63;101290.11;1745594;81;20276;-70
2021/04/17 03:42:06;;;;;;;;;;;;;;;3.81;81.60;101303.66;1750876;81;20153;-70
2021/04/17 03:44:34;;;;;;;;;;;;;;;3.75;81.48;101303.94;1751089;81;20250;-70
2021/04/17 03:47:00;;;;;;;;;;;;;;;3.69;81.58;101308.91;1755384;80;20716;-70
2021/04/17 03:49:26;;;;;;;;;;;;;;;3.69;81.71;101294.84;1755701;80;20275;-70
2021/04/17 03:51:53;;;;;;;;;;;;;;;3.70;81.73;101300.41;1745990;80;20296;-70
2021/04/17 03:54:18;;;;;;;;;;;;;;;3.69;81.72;101300.83;1744012;81;20216;-70
2021/04/17 03:56:44;;;;;;;;;;;;;;;3.70;81.75;101298.72;1744971;81;20267;-70
2021/04/17 03:59:10;;;;;;;;;;;;;;;3.70;81.74;101298.72;1751576;81;20212;-70
2021/04/17 04:01:36;;;;;;;;;;;;;;;3.69;81.71;101301.24;1747358;80;20176;-70
2021/04/17 04:04:03;;;;;;;;;;;;;;;3.68;81.67;101303.34;1743868;80;20308;-70
2021/04/17 04:06:29;;;;;;;;;;;;;;;3.63;81.69;101306.70;1748581;81;20282;-70
2021/04/17 04:08:55;;;;;;;;;;;;;;;3.61;81.69;101304.94;1743071;81;20212;-70
2021/04/17 04:11:21;;;;;;;;;;;;;;;3.61;81.73;101313.88;1754503;80;20188;-70
2021/04/17 04:13:47;;;;;;;;;;;;;;;3.59;81.78;101303.62;1755178;80;20253;-70
2021/04/17 04:16:13;;;;;;;;;;;;;;;3.60;81.87;101294.25;1743988;81;20252;-70
2021/04/17 04:18:39;;;;;;;;;;;;;;;3.60;81.82;101304.06;1746769;81;20239;-70
2021/04/17 04:21:06;;;;;;;;;;;;;;;3.60;81.85;101302.79;1750590;81;170252;-70
2021/04/17 04:23:32;;;;;;;;;;;;;;;3.62;81.87;101309.22;1743565;80;20177;-70
2021/04/17 04:25:58;;;;;;;;;;;;;;;3.61;81.89;101307.08;1752156;81;20177;-70
2021/04/17 04:28:24;;;;;;;;;;;;;;;3.63;81.89;101307.11;1748090;80;20172;-70
2021/04/17 04:30:50;;;;;;;;;;;;;;;3.64;81.89;101307.53;1738096;81;20305;-70
2021/04/17 04:33:17;;;;;;;;;;;;;;;3.64;81.94;101299.44;1722290;81;39151;-71
2021/04/17 04:35:43;;;;;;;;;;;;;;;3.69;81.93;101307.22;1741183;81;20277;-70
2021/04/17 04:38:09;;;;;;;;;;;;;;;3.69;81.89;101302.52;1737763;81;20223;-70
2021/04/17 04:40:35;;;;;;;;;;;;;;;3.72;81.97;101302.59;1740142;81;20192;-70
2021/04/17 04:43:01;;;;;;;;;;;;;;;3.74;81.96;101296.68;1751406;80;20188;-70
2021/04/17 04:45:28;;;;;;;;;;;;;;;3.78;81.99;101302.73;1755412;80;20256;-70
2021/04/17 04:47:53;;;;;;;;;;;;;;;3.81;82.01;101295.99;1739639;80;20308;-70
2021/04/17 04:50:20;;;;;;;;;;;;;;;3.86;82.02;101307.61;1732534;80;20199;-70
2021/04/17 04:52:47;;;;;;;;;;;;;;;3.90;82.02;101313.23;1754325;80;20327;-70
2021/04/17 04:55:14;;;;;;;;;;;;;;;3.94;82.02;101313.76;1741408;80;20227;-70
2021/04/17 04:57:40;;;;;;;;;;;;;;;3.94;81.94;101312.06;1738452;80;20141;-70
2021/04/17 05:00:06;;;;;;;;;;;;;;;3.98;81.99;101313.86;1744607;80;20721;-70
2021/04/17 05:02:32;;;;;;;;;;;;;;;4.03;82.03;101313.09;1757775;80;20245;-70
2021/04/17 05:05:00;;;;;;;;;;;;;;;4.06;81.97;101302.52;1755175;80;20250;-70
2021/04/17 05:07:26;;;;;;;;;;;;;;;4.09;82.01;101297.87;1737639;81;20216;-70
2021/04/17 05:09:52;;;;;;;;;;;;;;;4.12;81.98;101297.94;1753351;80;20240;-70
2021/04/17 05:12:18;;;;;;;;;;;;;;;4.15;82.04;101301.43;1749693;80;20233;-70
2021/04/17 05:14:44;;;;;;;;;;;;;;;4.20;82.03;101313.02;1747061;80;20711;-70
2021/04/17 05:17:10;;;;;;;;;;;;;;;4.22;81.99;101308.79;1741098;80;20262;-70
2021/04/17 05:19:39;;;;;;;;;;;;;;;4.24;82.00;101311.83;1737549;80;20719;-70
2021/04/17 05:22:04;;;;;;;;;;;;;;;4.26;81.96;101315.28;1747127;81;20346;-70
2021/04/17 05:24:30;;;;;;;;;;;;;;;4.28;81.98;101314.03;1746359;80;20248;-70
2021/04/17 05:27:05;;;;;;;;;;;;;;;4.32;82.00;101315.83;1750688;80;20197;-70
2021/04/17 05:29:31;;;;;;;;;;;;;;;4.30;81.92;101313.23;1750298;80;20268;-70
2021/04/17 05:31:57;;;;;;;;;;;;;;;4.33;81.92;101321.40;1739791;81;20277;-72
2021/04/17 05:34:24;;;;;;;;;;;;;;;4.33;81.98;101318.84;1754825;80;20237;-71
2021/04/17 05:36:50;;;;;;;;;;;;;;;4.38;82.07;101324.92;1749944;80;20196;-71
2021/04/17 05:39:17;;;;;;;;;;;;;;;4.41;82.04;101320.28;1708243;82;20293;-71
2021/04/17 05:41:43;;;;;;;;;;;;;;;4.44;82.03;101322.48;1685660;83;20250;-71
2021/04/17 05:44:12;;;;;;;;;;;;;;;4.46;82.04;101316.98;1703549;82;20267;-70
2021/04/17 05:46:39;;;;;;;;;;;;;;;4.48;81.96;101320.44;1741951;80;20240;-72
2021/04/17 05:49:06;;;;;;;;;;;;;;;4.48;81.98;101319.56;1747161;80;20241;-70
2021/04/17 05:51:36;;;;;;;;;;;;;;;4.48;82.28;101320.44;1726598;80;20562;-70
2021/04/17 05:54:02;;;;;;;;;;;;;;;4.50;82.39;101319.19;1730019;80;20264;-70
2021/04/17 05:56:28;;;;;;;;;;;;;;;4.50;82.40;101316.62;1751901;80;20252;-70
2021/04/17 05:58:54;;;;;;;;;;;;;;;4.51;82.43;101320.50;1750230;80;20727;-70
2021/04/17 06:01:20;;;;;;;;;;;;;;;4.54;82.47;101317.13;1751430;80;20268;-70
2021/04/17 06:03:46;;;;;;;;;;;;;;;4.57;82.55;101319.34;1740539;80;20163;-70
2021/04/17 06:06:13;;;;;;;;;;;;;;;4.59;82.53;101313.83;1752364;80;20250;-70
2021/04/17 06:08:39;;;;;;;;;;;;;;;4.60;82.52;101316.84;1751154;80;20248;-70
2021/04/17 06:11:06;;;;;;;;;;;;;;;4.61;82.53;101312.16;1753752;80;20265;-70
2021/04/17 06:13:33;;;;;;;;;;;;;;;4.59;82.47;101316.39;1752314;80;20289;-70
2021/04/17 06:15:59;;;;;;;;;;;;;;;4.60;82.54;101309.57;1753047;80;20197;-70
2021/04/17 06:18:28;;;;;;;;;;;;;;;4.64;82.59;101302.39;1749736;80;20241;-70
2021/04/17 06:20:54;;;;;;;;;;;;;;;4.68;82.61;101305.88;1744606;80;20254;-71
2021/04/17 06:23:20;;;;;;;;;;;;;;;4.71;82.63;101308.46;1754617;80;20180;-70
2021/04/17 06:25:49;;;;;;;;;;;;;;;4.73;82.68;101312.78;1739915;80;20264;-72
2021/04/17 06:28:15;;;;;;;;;;;;;;;4.75;82.57;101309.83;1751555;80;20266;-72
2021/04/17 06:30:41;;;;;;;;;;;;;;;4.76;82.54;101307.72;1745566;80;20253;-73
2021/04/17 06:33:09;;;;;;;;;;;;;;;4.77;82.45;101312.42;1740653;80;20287;-73
2021/04/17 06:35:36;;;;;;;;;;;;;;;4.79;82.40;101309.47;1751825;80;20256;-72
2021/04/17 06:38:03;;;;;;;;;;;;;;;4.81;82.35;101306.52;1756929;80;20245;-72
2021/04/17 06:40:36;;;;;;;;;;;;;;;4.85;82.38;101308.30;1746554;80;20262;-73
2021/04/17 06:43:05;;;;;;;;;;;;;;;4.89;82.35;101307.11;1752365;80;20272;-73
2021/04/17 06:45:38;;;;;;;;;;;;;;;4.93;82.35;101314.02;1753398;80;20244;-72
2021/04/17 06:48:07;;;;;;;;;;;;;;;4.97;82.36;101307.25;1751294;80;20185;-73
2021/04/17 06:50:35;;;;;;;;;;;;;;;4.99;82.30;101301.31;1745326;80;20266;-73
2021/04/17 06:53:09;;;;;;;;;;;;;;;5.03;82.34;101303.52;1722312;80;20177;-73
2021/04/17 06:55:36;;;;;;;;;;;;;;;5.08;82.42;101301.89;1740048;80;20264;-73
2021/04/17 06:58:03;;;;;;;;;;;;;;;5.11;82.34;101294.26;1753786;80;20276;-73
2021/04/17 07:00:29;;;;;;;;;;;;;;;5.11;82.16;101294.26;1751917;80;20165;-74
2021/04/17 07:02:55;;;;;;;;;;;;;;;5.09;82.22;101298.50;1749654;80;20252;-74
2021/04/17 07:05:22;;;;;;;;;;;;;;;5.11;82.20;101301.95;1741127;80;20181;-74
2021/04/17 07:07:48;;;;;;;;;;;;;;;5.10;82.22;101292.53;1746273;80;20255;-74
2021/04/17 07:10:15;;;;;;;;;;;;;;;5.13;82.30;101288.73;1761361;80;20469;-74
2021/04/17 07:12:44;;;;;;;;;;;;;;;5.19;82.35;101287.98;1736236;80;20258;-73
2021/04/17 07:15:09;;;;;;;;;;;;;;;5.26;82.46;101286.80;1758597;80;20194;-73
2021/04/17 07:17:36;;;;;;;;;;;;;;;5.36;82.49;101287.81;1748705;80;20264;-73
2021/04/17 07:20:05;;;;;;;;;;;;;;;5.45;82.47;101279.40;1757371;80;20290;-73
2021/04/17 07:22:35;;;;;;;;;;;;;;;5.56;82.51;101278.73;1746983;80;20272;-73
2021/04/17 07:25:11;;;;;;;;;;;;;;;5.73;82.57;101278.08;1744151;80;20384;-73
2021/04/17 07:27:40;;;;;;;;;;;;;;;5.87;82.60;101274.87;1742523;80;20304;-73
2021/04/17 07:30:19;;;;;;;;;;;;;;;6.02;82.58;101278.09;1732307;80;20316;-72
2021/04/17 07:33:09;;;;;;;;;;;;;;;6.15;82.51;101285.54;1740810;80;20663;-74
2021/04/17 07:35:41;;;;;;;;;;;;;;;6.18;82.25;101291.58;1746384;80;20258;-72
2021/04/17 07:38:17;;;;;;;;;;;;;;;6.21;82.26;101287.77;1733929;80;20289;-73
2021/04/17 07:40:46;;;;;;;;;;;;;;;6.22;82.19;101284.78;1752303;80;20184;-73
2021/04/17 07:43:17;;;;;;;;;;;;;;;6.21;82.15;101287.77;1747648;80;20264;-73
2021/04/17 07:45:41;;;;;;;;;;;;;;;6.23;82.21;101287.36;1743032;80;20263;-73
2021/04/17 07:48:25;;;;;;;;;;;;;;;6.29;82.30;101296.81;1745788;80;20268;-73
2021/04/17 07:50:56;;;;;;;;;;;;;;;6.34;82.24;101289.17;1686405;83;20299;-73
2021/04/17 07:53:42;;;;;;;;;;;;;;;6.40;82.29;101290.53;1701668;82;20286;-73
2021/04/17 07:56:30;;;;;;;;;;;;;;;6.39;82.12;101284.95;1685235;84;20296;-73
2021/04/17 07:58:59;;;;;;;;;;;;;;;6.46;82.33;101284.18;1721667;82;20290;-73
2021/04/17 08:01:28;;;;;;;;;;;;;;;6.59;82.37;101282.19;1709079;82;20278;-73
2021/04/17 08:03:56;;;;;;;;;;;;;;;6.73;82.39;101273.34;1745734;80;20324;-74
2021/04/17 08:06:23;;;;;;;;;;;;;;;6.89;82.48;101276.05;1742922;80;20295;-73
2021/04/17 08:08:51;;;;;;;;;;;;;;;7.10;82.52;101270.67;1748864;80;20307;-73
2021/04/17 08:11:20;;;;;;;;;;;;;;;7.32;82.57;101272.55;1751019;80;20289;-73
2021/04/17 08:13:48;;;;;;;;;;;;;;;7.59;82.43;101283.05;1756720;80;20280;-73
2021/04/17 08:16:16;;;;;;;;;;;;;;;7.73;82.23;101275.84;1758056;80;20295;-73
2021/04/17 08:18:43;;;;;;;;;;;;;;;7.82;82.14;101273.29;1744214;80;20188;-73
2021/04/17 08:21:10;;;;;;;;;;;;;;;7.89;82.14;101267.33;1736877;80;20405;-73
2021/04/17 08:23:37;;;;;;;;;;;;;;;7.98;82.21;101270.81;1736196;81;20306;-73
2021/04/17 08:26:06;;;;;;;;;;;;;;;8.03;81.92;101269.97;1739885;81;20279;-71
2021/04/17 08:28:38;;;;;;;;;;;;;;;8.09;82.02;101276.44;1716323;81;20324;-72
2021/04/17 08:31:35;;;;;;;;;;;;;;;8.28;82.22;101269.23;1731944;82;20331;-72
2021/04/17 08:34:13;;;;;;;;;;;;;;;8.55;82.28;101264.60;1738236;81;20303;-72
2021/04/17 08:36:42;;;;;;;;;;;;;;;8.89;82.11;101266.80;1732688;81;20331;-72
2021/04/17 08:39:29;;;;;;;;;;;;;;;9.01;81.74;101270.68;1734794;81;20248;-72
2021/04/17 08:41:55;;;;;;;;;;;;;;;9.09;81.67;101265.53;1749433;81;20288;-73
2021/04/17 08:44:35;;;;;;;;;;;;;;;9.53;82.04;101266.77;1742676;81;20827;-73
2021/04/17 08:47:00;;;;;;;;;;;;;;;10.13;81.43;101257.99;1729179;81;20261;-73
2021/04/17 08:49:29;;;;;;;;;;;;;;;10.40;81.24;101275.11;1731984;81;20286;-73
2021/04/17 08:52:11;;;;;;;;;;;;;;;10.36;80.84;101274.73;1741831;81;20255;-74
2021/04/17 08:54:43;;;;;;;;;;;;;;;10.37;81.09;101279.47;1730906;82;20260;-74
2021/04/17 08:57:15;;;;;;;;;;;;;;;10.49;81.30;101281.53;1734964;81;20820;-74
2021/04/17 08:59:42;;;;;;;;;;;;;;;10.48;80.79;101279.81;1735299;81;20481;-74
2021/04/17 09:02:14;;;;;;;;;;;;;;;10.37;80.86;101271.72;1727409;81;20490;-74
2021/04/17 09:05:08;;;;;;;;;;;;;;;10.47;80.84;101270.34;1741246;81;20252;-73
2021/04/17 09:07:37;;;;;;;;;;;;;;;10.57;80.81;101262.10;1727536;81;20272;-73
2021/04/17 09:10:28;;;;;;;;;;;;;;;10.50;81.08;101256.53;1728710;81;20269;-73
2021/04/17 09:13:14;;;;;;;;;;;;;;;10.22;80.92;101263.16;1743291;81;20271;-73
2021/04/17 09:16:00;;;;;;;;;;;;;;;10.04;81.05;101259.75;1717103;82;20240;-73
2021/04/17 09:18:38;;;;;;;;;;;;;;;9.91;81.25;101256.34;1740646;81;20255;-73
2021/04/17 09:21:18;;;;;;;;;;;;;;;9.91;81.41;101257.20;1740910;80;20188;-73
2021/04/17 09:23:46;;;;;;;;;;;;;;;9.90;81.22;101251.61;1748829;80;20268;-74
2021/04/17 09:26:33;;;;;;;;;;;;;;;9.85;81.00;101261.13;1751169;80;20264;-74
2021/04/17 09:29:25;;;;;;;;;;;;;;;9.75;80.96;101262.44;1748818;80;20278;-72
2021/04/17 09:31:58;;;;;;;;;;;;;;;9.73;80.94;101259.86;1745807;80;20192;-72
2021/04/17 09:34:24;;;;;;;;;;;;;;;9.77;81.15;101269.75;1759104;80;20279;-72
2021/04/17 09:36:50;;;;;;;;;;;;;;;9.83;81.16;101251.23;1757906;80;20769;-72
2021/04/17 09:39:25;;;;;;;;;;;;;;;9.93;81.18;101258.05;1755328;80;20566;-72
2021/04/17 09:41:52;;;;;;;;;;;;;;;9.86;80.79;101262.84;1755828;80;20432;-72
2021/04/17 09:44:19;;;;;;;;;;;;;;;9.82;80.74;101265.00;1749059;80;20308;-72
2021/04/17 09:46:48;;;;;;;;;;;;;;;9.81;80.83;101263.72;1752069;80;20288;-72
2021/04/17 09:49:39;;;;;;;;;;;;;;;9.90;81.04;101260.65;1719730;81;20359;-72
2021/04/17 09:52:06;;;;;;;;;;;;;;;10.06;81.09;101264.05;1745877;80;20304;-72
2021/04/17 09:54:35;;;;;;;;;;;;;;;10.23;81.09;101256.27;1738697;80;20268;-72
2021/04/17 09:57:06;;;;;;;;;;;;;;;10.42;81.22;101252.70;1748541;81;20284;-72
2021/04/17 09:59:33;;;;;;;;;;;;;;;10.51;80.78;101250.50;1756742;80;20301;-72
2021/04/17 10:02:03;;;;;;;;;;;;;;;10.48;80.58;101253.96;1754232;81;20307;-72
2021/04/17 10:04:49;;;;;;;;;;;;;;;10.55;80.67;101254.35;1752635;80;20283;-72
2021/04/17 10:07:15;;;;;;;;;;;;;;;10.53;80.31;101254.80;1748476;80;20324;-72
2021/04/17 10:09:42;;;;;;;;;;;;;;;10.48;80.37;101250.52;1753139;81;20893;-72
2021/04/17 10:12:09;;;;;;;;;;;;;;;10.47;80.34;101246.21;1739621;81;20287;-72
2021/04/17 10:14:42;;;;;;;;;;;;;;;10.44;80.27;101244.94;1743592;81;20308;-72
2021/04/17 10:17:09;;;;;;;;;;;;;;;10.36;80.30;101244.14;1747444;81;20326;-72
2021/04/17 10:19:35;;;;;;;;;;;;;;;10.31;80.15;101247.19;1740722;81;20295;-72
2021/04/17 10:22:01;;;;;;;;;;;;;;;10.30;80.39;101239.00;1750100;81;20311;-72
2021/04/17 10:24:30;;;;;;;;;;;;;;;10.43;80.75;101244.50;1747023;80;20299;-72
2021/04/17 10:27:10;;;;;;;;;;;;;;;10.51;80.55;101244.89;1731306;81;501711;-72
2021/04/17 10:29:42;;;;;;;;;;;;;;;10.62;80.51;101243.54;1739001;80;20287;-72
2021/04/17 10:32:17;;;;;;;;;;;;;;;10.83;80.90;101239.95;1747458;80;20299;-73
2021/04/17 10:34:49;;;;;;;;;;;;;;;11.03;80.51;101236.76;1749929;80;20288;-72
2021/04/17 10:37:18;;;;;;;;;;;;;;;11.15;80.52;101238.39;1739248;80;20272;-72
2021/04/17 10:39:59;;;;;;;;;;;;;;;11.26;80.30;101248.22;1739268;80;20412;-72
2021/04/17 10:42:32;;;;;;;;;;;;;;;11.26;79.92;101246.48;1737536;80;20338;-72
2021/04/17 10:44:59;;;;;;;;;;;;;;;11.38;80.17;101251.14;1726855;80;20295;-71
2021/04/17 10:47:25;;;;;;;;;;;;;;;11.54;80.28;101239.30;1751916;80;20292;-72
2021/04/17 10:49:51;;;;;;;;;;;;;;;11.66;79.98;101237.02;1750521;80;20294;-72
2021/04/17 10:52:29;;;;;;;;;;;;;;;11.71;79.96;101234.38;1752801;80;20293;-72
2021/04/17 10:54:57;;;;;;;;;;;;;;;11.73;79.92;101234.78;1752973;80;20288;-72
2021/04/17 10:57:26;;;;;;;;;;;;;;;11.76;79.70;101236.48;1748778;80;20283;-72
2021/04/17 10:59:57;;;;;;;;;;;;;;;11.69;79.66;101238.72;1747652;80;20298;-72
2021/04/17 11:02:29;;;;;;;;;;;;;;;11.61;79.60;101241.39;1750687;80;20323;-72
2021/04/17 11:04:56;;;;;;;;;;;;;;;11.61;79.83;101242.69;1754339;80;20181;-71
2021/04/17 11:07:31;;;;;;;;;;;;;;;11.69;79.86;101240.02;1747437;80;20279;-71
2021/04/17 11:09:59;;;;;;;;;;;;;;;11.85;80.08;101233.83;1753521;80;20295;-71
2021/04/17 11:12:29;;;;;;;;;;;;;;;12.06;80.00;101237.88;1758131;80;20280;-71
2021/04/17 11:15:17;;;;;;;;;;;;;;;12.15;79.70;101237.33;1751870;80;20258;-71
2021/04/17 11:17:45;;;;;;;;;;;;;;;12.19;79.60;101232.96;1749409;80;20263;-71
2021/04/17 11:20:16;;;;;;;;;;;;;;;12.23;79.61;101234.20;1723844;81;20307;-71
2021/04/17 11:22:42;;;;;;;;;;;;;;;12.30;79.54;101235.42;1756199;80;20260;-70
2021/04/17 11:25:10;;;;;;;;;;;;;;;12.21;79.27;101237.69;1740091;80;20222;-70
2021/04/17 11:27:36;;;;;;;;;;;;;;;12.21;79.50;101239.84;1737753;80;20251;-71
2021/04/17 11:30:06;;;;;;;;;;;;;;;12.25;79.39;101241.52;1743748;80;20462;-73
2021/04/17 11:32:38;;;;;;;;;;;;;;;12.24;79.32;101241.10;1743625;80;20284;-73
2021/04/17 11:35:07;;;;;;;;;;;;;;;12.29;79.46;101240.19;1744466;80;20263;-73
2021/04/17 11:37:33;;;;;;;;;;;;;;;12.33;79.37;101236.23;1741231;80;20263;-72
2021/04/17 11:39:59;;;;;;;;;;;;;;;12.36;79.29;101237.50;1748535;80;20288;-73
2021/04/17 11:42:26;;;;;;;;;;;;;;;12.39;79.34;101238.75;1754093;80;20807;-73
2021/04/17 11:44:53;;;;;;;;;;;;;;;12.39;79.27;101236.16;1749687;80;20188;-73
2021/04/17 11:47:19;;;;;;;;;;;;;;;12.42;79.32;101238.70;1750414;80;20275;-72
2021/04/17 11:49:45;;;;;;;;;;;;;;;12.49;79.33;101235.12;1743559;80;20286;-72
2021/04/17 11:52:20;;;;;;;;;;;;;;;12.58;79.41;101228.51;1740988;80;20439;-72
2021/04/17 11:54:47;;;;;;;;;;;;;;;12.68;79.39;101220.16;1746193;81;20173;-72
2021/04/17 11:57:13;;;;;;;;;;;;;;;12.75;79.25;101221.78;1754320;80;20177;-73
2021/04/17 11:59:52;;;;;;;;;;;;;;;12.82;79.09;101222.54;1741447;81;20597;-72
2021/04/17 12:02:18;;;;;;;;;;;;;;;12.83;78.88;101221.66;1750219;80;20311;-72
2021/04/17 12:04:44;;;;;;;;;;;;;;;12.91;79.14;101213.31;1761243;80;20258;-72
2021/04/17 12:07:10;;;;;;;;;;;;;;;12.99;78.98;101219.68;1756580;80;20342;-72
2021/04/17 12:09:36;;;;;;;;;;;;;;;13.07;79.03;101217.34;1757781;80;20302;-72
2021/04/17 12:12:02;;;;;;;;;;;;;;;13.16;78.79;101218.52;1759963;80;20224;-72
2021/04/17 12:14:28;;;;;;;;;;;;;;;13.22;79.00;101220.16;1742185;80;20310;-72
2021/04/17 12:17:01;;;;;;;;;;;;;;;13.32;78.80;101219.12;1747808;80;20575;-72
2021/04/17 12:19:29;;;;;;;;;;;;;;;13.35;78.71;101220.36;1742301;80;20423;-71
2021/04/17 12:21:55;;;;;;;;;;;;;;;13.38;78.61;101219.45;1737164;80;20339;-71
2021/04/17 12:24:21;;;;;;;;;;;;;;;13.39;78.50;101212.93;1737787;80;20311;-71
2021/04/17 12:26:48;;;;;;;;;;;;;;;13.42;78.55;101214.62;1743396;80;20177;-71
2021/04/17 12:29:14;;;;;;;;;;;;;;;13.40;78.51;101218.55;1752194;80;20236;-71
2021/04/17 12:31:40;;;;;;;;;;;;;;;13.44;78.51;101218.05;1747784;80;20213;-71
2021/04/17 12:34:08;;;;;;;;;;;;;;;13.40;78.38;101215.95;1762690;80;20523;-72
2021/04/17 12:36:34;;;;;;;;;;;;;;;13.40;78.50;101218.55;1753035;80;20284;-72
2021/04/17 12:39:00;;;;;;;;;;;;;;;13.41;78.42;101217.66;1756637;80;20396;-72
2021/04/17 12:41:26;;;;;;;;;;;;;;;13.42;78.32;101206.38;1751624;80;20335;-72
2021/04/17 12:43:52;;;;;;;;;;;;;;;13.42;78.35;101206.38;1756398;80;20493;-72
2021/04/17 12:46:18;;;;;;;;;;;;;;;13.43;78.29;101203.34;1747884;80;20346;-72
2021/04/17 12:48:44;;;;;;;;;;;;;;;13.41;78.25;101196.88;1750776;80;20332;-71
2021/04/17 12:51:10;;;;;;;;;;;;;;;13.43;78.36;101192.51;1748548;80;20307;-72
2021/04/17 12:53:36;;;;;;;;;;;;;;;13.47;78.29;101192.02;1748064;80;20279;-72